createdAt,value
2019-06-07T00:08:43.999Z,10.77
2019-06-07T00:11:20.709Z,10.80
2019-06-07T00:17:55.596Z,10.60
2019-06-07T00:20:27.116Z,9.93
2019-06-07T00:22:59.980Z,10.80
2019-06-07T00:25:30.700Z,11.23
2019-06-07T00:28:00.194Z,13.00
2019-06-07T00:30:40.907Z,11.80
2019-06-07T00:33:01.866Z,9.67
2019-06-07T00:35:32.825Z,15.08
2019-06-07T00:38:05.378Z,11.50
2019-06-07T00:40:43.366Z,11.00
2019-06-07T00:43:17.606Z,13.87
2019-06-07T00:45:48.514Z,11.67
2019-06-07T00:48:27.382Z,11.50
2019-06-07T00:50:51.589Z,10.23
2019-06-07T00:53:31.776Z,11.37
2019-06-07T00:56:01.771Z,11.13
2019-06-07T00:58:46.508Z,12.50
2019-06-07T01:01:28.434Z,11.17
2019-06-07T01:04:29.233Z,11.40
2019-06-07T01:10:51.585Z,10.50
2019-06-07T01:13:24.294Z,10.40
2019-06-07T01:16:00.276Z,10.80
2019-06-07T01:18:45.987Z,10.53
2019-06-07T01:25:47.081Z,12.43
2019-06-07T01:28:23.592Z,11.33
2019-06-07T01:30:54.776Z,11.00
2019-06-07T01:40:09.037Z,12.67
2019-06-07T02:13:50.648Z,14.33
2019-06-07T02:23:51.219Z,11.87
2019-06-07T02:27:33.032Z,14.23
2019-06-07T02:37:07.452Z,16.43
2019-06-07T02:39:48.842Z,15.97
2019-06-07T02:42:20.183Z,16.10
2019-06-07T02:44:50.942Z,14.40
2019-06-07T02:47:25.174Z,14.40
2019-06-07T02:49:54.614Z,14.80
2019-06-07T02:52:30.697Z,16.50
2019-06-07T02:54:56.306Z,13.77
2019-06-07T02:57:29.372Z,14.53
2019-06-07T03:00:16.541Z,18.10
2019-06-07T03:02:40.360Z,17.33
2019-06-07T03:05:03.777Z,16.13
2019-06-07T03:07:40.423Z,13.20
2019-06-07T03:10:12.069Z,17.40
2019-06-07T03:12:42.951Z,14.40
2019-06-07T03:15:30.105Z,14.07
2019-06-07T03:17:53.409Z,18.63
2019-06-07T03:20:23.967Z,15.97
2019-06-07T03:22:54.419Z,14.60
2019-06-07T03:25:25.798Z,17.50
2019-06-07T03:27:56.327Z,16.03
2019-06-07T03:30:57.874Z,19.30
2019-06-07T03:33:09.527Z,18.23
2019-06-07T03:35:45.303Z,19.70
2019-06-07T03:38:27.559Z,19.90
2019-06-07T03:41:14.806Z,20.30
2019-06-07T03:44:07.804Z,20.60
2019-06-07T03:46:42.066Z,21.87
2019-06-07T03:49:12.601Z,21.73
2019-06-07T03:51:44.578Z,20.93
2019-06-07T03:54:39.797Z,20.37
2019-06-07T03:57:11.033Z,17.83
2019-06-07T03:59:41.589Z,20.70
2019-06-07T04:02:14.828Z,20.97
2019-06-07T04:05:05.863Z,21.65
2019-06-07T04:07:44.583Z,16.67
2019-06-07T04:10:17.779Z,21.35
2019-06-07T04:13:16.108Z,22.27
2019-06-07T04:16:08.547Z,19.20
2019-06-07T04:18:41.867Z,24.70
2019-06-07T04:21:15.944Z,23.07
2019-06-07T04:24:52.293Z,16.80
2019-06-07T04:31:34.483Z,17.50
2019-06-07T04:34:06.371Z,17.60
2019-06-07T04:36:52.746Z,19.20
2019-06-07T04:42:49.016Z,18.80
2019-06-07T04:45:51.148Z,16.13
2019-06-07T04:49:17.727Z,18.90
2019-06-07T04:51:50.724Z,16.70
2019-06-07T04:54:20.449Z,19.53
2019-06-07T04:57:17.058Z,19.60
2019-06-07T05:00:12.114Z,20.10
2019-06-07T05:02:18.279Z,16.10
2019-06-07T05:04:50.916Z,17.80
2019-06-07T05:07:20.600Z,19.63
2019-06-07T05:09:50.254Z,17.37
2019-06-07T05:12:20.749Z,18.97
2019-06-07T05:14:50.390Z,16.03
2019-06-07T05:17:19.891Z,16.00
2019-06-07T05:19:49.342Z,14.93
2019-06-07T05:22:18.789Z,14.83
2019-06-07T05:24:48.355Z,17.77
2019-06-07T05:27:19.003Z,13.27
2019-06-07T05:30:08.846Z,17.47
2019-06-07T05:32:21.771Z,16.87
2019-06-07T05:34:51.092Z,13.37
2019-06-07T05:37:20.733Z,15.13
2019-06-07T05:39:50.374Z,13.70
2019-06-07T05:42:19.756Z,13.80
2019-06-07T05:44:49.543Z,17.27
2019-06-07T05:47:18.864Z,15.50
2019-06-07T05:49:48.209Z,12.57
2019-06-07T05:52:17.834Z,11.87
2019-06-07T05:54:49.838Z,13.83
2019-06-07T05:57:19.910Z,12.23
2019-06-07T05:59:50.545Z,11.30
2019-06-07T06:02:24.866Z,9.50
2019-06-07T06:04:51.163Z,10.77
2019-06-07T06:07:21.759Z,13.53
2019-06-07T06:09:52.940Z,13.37
2019-06-07T06:12:34.655Z,10.60
2019-06-07T06:14:54.800Z,11.10
2019-06-07T06:17:24.272Z,10.27
2019-06-07T06:19:56.741Z,12.27
2019-06-07T06:22:26.965Z,11.97
2019-06-07T06:28:03.136Z,12.07
2019-06-07T06:29:59.608Z,10.57
2019-06-07T06:32:54.364Z,11.93
2019-06-07T06:35:00.283Z,10.17
2019-06-07T06:37:29.977Z,13.30
2019-06-07T06:39:59.396Z,10.13
2019-06-07T06:42:28.838Z,12.50
2019-06-07T06:44:59.296Z,16.83
2019-06-07T06:47:28.673Z,11.30
2019-06-07T06:49:58.258Z,13.00
2019-06-07T06:52:28.235Z,13.57
2019-06-07T06:55:00.841Z,13.27
2019-06-07T06:57:30.039Z,11.93
2019-06-07T06:59:59.525Z,11.13
2019-06-07T07:02:28.995Z,11.93
2019-06-07T07:04:58.567Z,11.37
2019-06-07T07:07:28.843Z,11.27
2019-06-07T07:10:00.629Z,9.80
2019-06-07T07:12:30.404Z,11.60
2019-06-07T07:15:00.687Z,10.90
2019-06-07T07:17:47.877Z,13.93
2019-06-07T07:20:02.526Z,12.00
2019-06-07T07:22:31.948Z,11.20
2019-06-07T07:25:01.564Z,9.43
2019-06-07T07:27:31.080Z,12.97
2019-06-07T07:30:35.483Z,11.83
2019-06-07T07:32:33.798Z,11.33
2019-06-07T07:35:03.278Z,9.63
2019-06-07T07:37:32.968Z,12.33
2019-06-07T07:40:54.868Z,10.37
2019-06-07T07:42:33.502Z,9.33
2019-06-07T07:45:03.071Z,10.43
2019-06-07T07:47:32.329Z,11.88
2019-06-07T07:50:02.012Z,11.77
2019-06-07T07:52:31.332Z,10.13
2019-06-07T07:55:01.000Z,10.90
2019-06-07T07:57:31.632Z,12.30
2019-06-07T08:00:36.217Z,11.13
2019-06-07T08:02:32.292Z,9.37
2019-06-07T08:05:21.818Z,11.87
2019-06-07T08:07:35.303Z,11.27
2019-06-07T08:10:05.987Z,7.95
2019-06-07T08:13:00.510Z,9.87
2019-06-07T08:15:11.898Z,8.43
2019-06-07T08:17:41.170Z,10.07
2019-06-07T08:20:12.878Z,8.93
2019-06-07T08:22:42.332Z,9.97
2019-06-07T08:25:11.875Z,11.23
2019-06-07T08:27:49.408Z,10.43
2019-06-07T08:32:55.934Z,11.03
2019-06-07T08:38:25.833Z,8.13
2019-06-07T08:40:30.121Z,9.27
2019-06-07T08:43:11.932Z,10.37
2019-06-07T08:45:31.018Z,10.20
2019-06-07T08:48:05.403Z,7.40
2019-06-07T08:50:31.351Z,10.43
2019-06-07T08:53:11.566Z,9.57
2019-06-07T08:55:35.424Z,10.93
2019-06-07T08:58:08.465Z,7.70
2019-06-07T09:00:47.262Z,9.43
2019-06-07T09:03:07.885Z,8.57
2019-06-07T09:05:37.478Z,9.00
2019-06-07T09:08:28.518Z,9.23
2019-06-07T09:10:38.953Z,8.70
2019-06-07T09:13:11.989Z,8.40
2019-06-07T09:15:41.639Z,8.97
2019-06-07T09:20:47.343Z,7.27
2019-06-07T09:23:17.776Z,8.90
2019-06-07T09:25:57.242Z,7.40
2019-06-07T09:28:20.839Z,8.23
2019-06-07T09:30:50.618Z,10.80
2019-06-07T09:33:20.039Z,10.53
2019-06-07T09:35:49.569Z,8.30
2019-06-07T09:38:25.627Z,6.70
2019-06-07T09:40:50.178Z,7.83
2019-06-07T09:43:59.962Z,6.60
2019-06-07T09:45:50.867Z,8.07
2019-06-07T09:49:01.506Z,8.73
2019-06-07T09:50:54.769Z,9.27
2019-06-07T09:53:24.291Z,8.53
2019-06-07T09:55:53.819Z,9.83
2019-06-07T09:58:51.209Z,8.37
2019-06-07T10:00:59.176Z,8.77
2019-06-07T10:03:26.759Z,12.17
2019-06-07T10:05:59.549Z,10.00
2019-06-07T10:09:42.281Z,10.10
2019-06-07T10:10:58.619Z,11.83
2019-06-07T10:13:28.081Z,9.20
2019-06-07T10:15:58.870Z,12.87
2019-06-07T10:18:28.829Z,15.43
2019-06-07T10:20:59.639Z,12.53
2019-06-07T10:23:29.022Z,10.07
2019-06-07T10:25:59.361Z,13.13
2019-06-07T10:28:29.191Z,8.23
2019-06-07T10:31:02.551Z,12.60
2019-06-07T10:33:33.162Z,9.67
2019-06-07T10:36:02.642Z,13.67
2019-06-07T10:38:32.218Z,12.07
2019-06-07T10:41:02.782Z,8.13
2019-06-07T10:43:34.160Z,7.77
2019-06-07T10:46:03.733Z,11.37
2019-06-07T10:48:33.065Z,9.07
2019-06-07T10:51:04.084Z,10.50
2019-06-07T10:53:33.973Z,8.70
2019-06-07T10:56:04.865Z,9.33
2019-06-07T10:58:34.836Z,11.10
2019-06-07T11:01:05.230Z,9.17
2019-06-07T11:03:35.136Z,11.53
2019-06-07T11:06:05.683Z,8.85
2019-06-07T11:08:35.377Z,10.20
2019-06-07T11:11:06.029Z,9.27
2019-06-07T11:13:36.227Z,9.40
2019-06-07T11:16:06.892Z,12.87
2019-06-07T11:18:36.680Z,7.47
2019-06-07T11:21:06.220Z,7.10
2019-06-07T11:23:36.881Z,10.63
2019-06-07T11:26:08.393Z,8.37
2019-06-07T11:28:38.173Z,6.80
2019-06-07T11:31:08.393Z,7.47
2019-06-07T11:33:38.305Z,7.83
2019-06-07T11:36:08.458Z,10.60
2019-06-07T11:38:38.444Z,5.20
2019-06-07T11:41:07.855Z,7.03
2019-06-07T11:43:37.418Z,7.10
2019-06-07T11:46:06.945Z,5.93
2019-06-07T11:48:36.450Z,8.37
2019-06-07T11:51:06.671Z,7.10
2019-06-07T11:53:36.283Z,10.57
2019-06-07T11:56:07.907Z,9.73
2019-06-07T11:58:37.465Z,8.90
2019-06-07T12:01:07.572Z,5.93
2019-06-07T12:03:37.592Z,9.00
2019-06-07T12:06:08.197Z,7.37
2019-06-07T12:08:37.820Z,8.30
2019-06-07T12:11:08.117Z,11.27
2019-06-07T12:13:37.978Z,7.73
2019-06-07T12:16:08.907Z,6.97
2019-06-07T12:18:38.696Z,6.80
2019-06-07T12:21:09.537Z,4.93
2019-06-07T12:23:39.052Z,4.70
2019-06-07T12:26:08.483Z,7.30
2019-06-07T12:28:39.231Z,7.80
2019-06-07T12:31:08.722Z,6.63
2019-06-07T12:33:38.241Z,5.77
2019-06-07T12:36:07.739Z,7.93
2019-06-07T12:38:37.216Z,9.73
2019-06-07T12:41:06.763Z,5.10
2019-06-07T12:43:36.038Z,8.17
2019-06-07T12:46:06.597Z,5.97
2019-06-07T12:48:37.783Z,5.23
2019-06-07T12:51:07.283Z,7.07
2019-06-07T12:53:36.787Z,4.47
2019-06-07T12:56:06.365Z,5.20
2019-06-07T12:58:39.363Z,4.17
2019-06-07T13:01:06.895Z,5.70
2019-06-07T13:03:37.720Z,6.70
2019-06-07T13:06:07.271Z,5.10
2019-06-07T13:08:36.629Z,4.13
2019-06-07T13:11:16.106Z,6.27
2019-06-07T13:13:37.770Z,6.03
2019-06-07T13:16:07.274Z,3.63
2019-06-07T13:18:36.710Z,5.17
2019-06-07T13:21:09.343Z,5.03
2019-06-07T13:23:39.024Z,6.53
2019-06-07T13:26:09.323Z,5.30
2019-06-07T13:28:38.869Z,4.77
2019-06-07T13:31:08.411Z,7.93
2019-06-07T13:33:38.937Z,5.23
2019-06-07T13:36:09.174Z,5.47
2019-06-07T13:38:39.869Z,3.60
2019-06-07T13:41:30.192Z,3.87
2019-06-07T13:43:46.915Z,3.90
2019-06-07T13:46:16.936Z,5.03
2019-06-07T13:48:48.008Z,7.40
2019-06-07T13:51:18.922Z,4.90
2019-06-07T13:53:48.609Z,3.63
2019-06-07T13:56:18.261Z,8.13
2019-06-07T13:58:48.862Z,4.03
2019-06-07T14:01:20.486Z,4.07
2019-06-07T14:03:49.945Z,4.90
2019-06-07T14:06:20.890Z,2.80
2019-06-07T14:08:50.151Z,6.23
2019-06-07T14:11:19.805Z,6.00
2019-06-07T14:13:51.257Z,4.70
2019-06-07T14:16:24.331Z,5.03
2019-06-07T14:18:54.458Z,2.87
2019-06-07T14:21:24.612Z,7.72
2019-06-07T14:23:54.230Z,3.23
2019-06-07T14:26:23.784Z,2.67
2019-06-07T14:28:53.568Z,6.70
2019-06-07T14:31:24.537Z,3.60
2019-06-07T14:33:55.747Z,5.30
2019-06-07T14:37:06.669Z,6.50
2019-06-07T14:39:38.849Z,3.87
2019-06-07T14:42:16.560Z,3.23
2019-06-07T14:44:57.000Z,3.87
2019-06-07T14:47:31.988Z,5.30
2019-06-07T14:50:22.189Z,4.70
2019-06-07T14:55:53.024Z,4.70
2019-06-07T14:58:43.413Z,9.30
2019-06-07T15:01:13.684Z,5.27
2019-06-07T15:03:47.555Z,4.00
2019-06-07T15:06:22.818Z,7.12
2019-06-07T15:08:52.223Z,4.77
2019-06-07T15:11:26.742Z,4.97
2019-06-07T15:13:56.107Z,3.33
2019-06-07T15:16:41.090Z,7.63
2019-06-07T15:19:11.349Z,4.67
2019-06-07T15:21:41.804Z,4.60
2019-06-07T15:24:11.621Z,2.87
2019-06-07T15:26:45.003Z,5.33
2019-06-07T15:29:17.418Z,5.03
2019-06-07T15:31:46.997Z,3.00
2019-06-07T15:34:16.452Z,6.92
2019-06-07T15:36:45.908Z,4.00
2019-06-07T15:39:15.602Z,4.17
2019-06-07T15:41:44.970Z,4.03
2019-06-07T15:44:14.678Z,2.17
2019-06-07T15:46:46.136Z,2.80
2019-06-07T15:49:15.541Z,2.10
2019-06-07T15:51:45.207Z,5.47
2019-06-07T15:54:14.690Z,2.17
2019-06-07T15:56:46.435Z,1.67
2019-06-07T15:59:20.364Z,2.77
2019-06-07T16:01:50.011Z,1.60
2019-06-07T16:04:20.840Z,2.67
2019-06-07T16:06:50.350Z,2.25
2019-06-07T16:09:19.854Z,2.40
2019-06-07T16:11:49.238Z,1.77
2019-06-07T16:14:18.919Z,2.10
2019-06-07T16:16:49.425Z,1.40
2019-06-07T16:19:20.600Z,2.10
2019-06-07T16:21:50.215Z,2.73
2019-06-07T16:24:19.763Z,4.53
2019-06-07T16:26:55.323Z,2.73
2019-06-07T16:29:24.957Z,3.20
2019-06-07T16:31:54.259Z,1.73
2019-06-07T16:34:24.572Z,1.87
2019-06-07T16:36:55.037Z,1.90
2019-06-07T16:39:24.449Z,1.67
2019-06-07T16:41:54.833Z,2.40
2019-06-07T16:44:24.261Z,5.27
2019-06-07T16:46:53.905Z,1.50
2019-06-07T16:49:23.355Z,1.73
2019-06-07T16:51:54.833Z,1.53
2019-06-07T16:54:25.469Z,1.33
2019-06-07T16:56:55.155Z,1.57
2019-06-07T16:59:24.587Z,1.37
2019-06-07T17:01:54.159Z,6.90
2019-06-07T17:04:24.019Z,2.20
2019-06-07T17:06:53.498Z,1.50
2019-06-07T17:09:23.061Z,1.77
2019-06-07T17:11:52.579Z,2.50
2019-06-07T17:14:22.174Z,1.70
2019-06-07T17:16:51.718Z,1.50
2019-06-07T17:19:24.071Z,1.50
2019-06-07T17:21:53.487Z,1.73
2019-06-07T17:24:26.602Z,1.40
2019-06-07T17:26:54.227Z,3.13
2019-06-07T17:29:23.569Z,1.77
2019-06-07T17:31:53.153Z,1.43
2019-06-07T17:34:22.706Z,1.30
2019-06-07T17:36:52.179Z,1.43
2019-06-07T17:39:21.679Z,1.20
2019-06-07T17:42:01.455Z,1.40
2019-06-07T17:44:22.245Z,1.83
2019-06-07T17:46:51.928Z,2.70
2019-06-07T17:49:21.247Z,1.30
2019-06-07T17:51:52.051Z,1.40
2019-06-07T17:54:21.728Z,1.67
2019-06-07T17:56:53.425Z,1.37
2019-06-07T17:59:22.950Z,1.13
2019-06-07T18:02:13.558Z,1.20
2019-06-07T18:04:23.619Z,1.60
2019-06-07T18:06:57.674Z,3.40
2019-06-07T18:09:29.904Z,1.80
2019-06-07T18:11:59.540Z,1.80
2019-06-07T18:14:28.978Z,3.07
2019-06-07T18:16:58.524Z,1.57
2019-06-07T18:19:28.903Z,3.13
2019-06-07T18:21:59.063Z,1.93
2019-06-07T18:24:28.884Z,2.47
2019-06-07T18:26:58.905Z,3.93
2019-06-07T18:29:28.683Z,1.90
2019-06-07T18:32:00.328Z,2.57
2019-06-07T18:34:30.804Z,1.97
2019-06-07T18:37:00.273Z,1.30
2019-06-07T18:39:29.908Z,3.00
2019-06-07T18:41:59.491Z,2.70
2019-06-07T18:44:28.850Z,2.00
2019-06-07T18:46:58.534Z,1.30
2019-06-07T18:49:27.833Z,4.20
2019-06-07T18:52:15.719Z,1.30
2019-06-07T18:54:46.678Z,2.23
2019-06-07T18:57:16.336Z,1.60
2019-06-07T18:59:46.028Z,1.33
2019-06-07T19:02:15.604Z,2.10
2019-06-07T19:04:44.981Z,1.40
2019-06-07T19:07:14.542Z,1.57
2019-06-07T19:09:54.973Z,1.60
2019-06-07T19:12:28.410Z,1.40
2019-06-07T19:15:07.080Z,4.00
2019-06-07T19:17:36.816Z,1.10
2019-06-07T19:20:06.579Z,2.20
2019-06-07T19:22:36.069Z,1.40
2019-06-07T19:25:06.471Z,3.00
2019-06-07T19:27:37.183Z,3.53
2019-06-07T19:30:07.995Z,1.30
2019-06-07T19:32:38.602Z,2.03
2019-06-07T19:35:08.860Z,1.40
2019-06-07T19:37:51.774Z,1.43
2019-06-07T19:40:24.517Z,1.93
2019-06-07T19:42:56.511Z,1.40
2019-06-07T19:45:30.707Z,1.83
2019-06-07T19:47:58.684Z,1.20
2019-06-07T19:50:29.611Z,3.10
2019-06-07T19:52:59.309Z,1.33
2019-06-07T19:55:29.754Z,1.17
2019-06-07T19:57:59.634Z,2.57
2019-06-07T20:00:29.552Z,1.30
2019-06-07T20:02:59.919Z,4.40
2019-06-07T20:05:33.842Z,2.20
2019-06-07T20:08:05.266Z,1.30
2019-06-07T20:10:35.035Z,3.27
2019-06-07T20:13:05.830Z,2.53
2019-06-07T20:15:36.895Z,3.60
2019-06-07T20:18:07.691Z,1.57
2019-06-07T20:20:38.507Z,2.53
2019-06-07T20:23:10.945Z,1.93
2019-06-07T20:25:40.535Z,3.43
2019-06-07T20:28:13.606Z,1.27
2019-06-07T20:30:57.622Z,1.33
2019-06-07T20:33:31.037Z,1.47
2019-06-07T20:36:00.880Z,1.90
2019-06-07T20:38:33.282Z,2.13
2019-06-07T20:41:08.941Z,2.10
2019-06-07T20:43:38.578Z,1.73
2019-06-07T20:46:08.248Z,2.30
2019-06-07T20:48:37.922Z,2.47
2019-06-07T20:56:51.173Z,2.20
2019-06-07T20:59:23.468Z,1.50
2019-06-07T21:02:15.093Z,1.60
2019-06-07T21:04:44.758Z,3.60
2019-06-07T21:07:15.541Z,2.60
2019-06-07T21:09:45.488Z,1.73
2019-06-07T21:12:17.590Z,2.33
2019-06-07T21:14:49.502Z,3.90
2019-06-07T21:17:21.244Z,3.73
2019-06-07T21:19:51.214Z,1.50
2019-06-07T21:22:47.677Z,4.30
2019-06-07T21:25:14.777Z,4.80
2019-06-07T21:27:45.050Z,3.20
2019-06-07T21:30:18.472Z,2.70
2019-06-07T21:32:48.116Z,2.80
2019-06-07T21:35:18.157Z,3.37
2019-06-07T21:37:47.482Z,3.43
2019-06-07T21:40:17.888Z,1.27
2019-06-07T21:42:48.138Z,3.70
2019-06-07T21:45:17.850Z,3.58
2019-06-07T21:47:48.948Z,2.90
2019-06-07T21:50:30.201Z,2.67
2019-06-07T21:53:02.459Z,4.67
2019-06-07T21:55:31.989Z,1.73
2019-06-07T21:58:03.066Z,5.13
2019-06-07T22:01:12.345Z,4.93
2019-06-07T22:03:43.535Z,3.00
2019-06-07T22:06:14.145Z,3.67
2019-06-07T22:08:43.614Z,3.43
2019-06-07T22:11:15.432Z,3.10
2019-06-07T22:13:45.916Z,1.77
2019-06-07T22:16:28.604Z,3.20
2019-06-07T22:18:50.128Z,4.03
2019-06-07T22:21:19.592Z,4.13
2019-06-07T22:23:49.215Z,2.33
2019-06-07T22:26:18.573Z,1.33
2019-06-07T22:28:49.801Z,1.23
2019-06-07T22:31:19.382Z,1.93
2019-06-07T22:33:48.798Z,4.77
2019-06-07T22:36:19.502Z,1.90
2019-06-07T22:38:49.108Z,1.20
2019-06-07T22:41:18.940Z,1.30
2019-06-07T22:43:48.507Z,3.33
2019-06-07T22:46:19.325Z,5.25
2019-06-07T22:48:54.375Z,11.20
2019-06-07T22:51:26.223Z,5.17
2019-06-07T22:53:57.753Z,4.20
2019-06-07T22:56:34.141Z,4.93
2019-06-07T22:59:04.822Z,7.20
2019-06-07T23:01:36.489Z,5.63
2019-06-07T23:04:08.371Z,9.07
2019-06-07T23:06:39.433Z,3.67
2019-06-07T23:09:11.269Z,2.50
2019-06-07T23:11:52.561Z,4.47
2019-06-07T23:14:40.607Z,3.90
2019-06-07T23:17:13.886Z,5.27
2019-06-07T23:19:49.721Z,2.13
2019-06-07T23:22:20.289Z,5.03
2019-06-07T23:24:49.787Z,4.50
2019-06-07T23:27:25.859Z,4.00
2019-06-07T23:30:10.698Z,3.83
2019-06-07T23:32:44.196Z,3.50
2019-06-07T23:35:14.859Z,2.57
2019-06-07T23:37:44.786Z,4.00
2019-06-07T23:40:17.255Z,3.50
2019-06-07T23:42:50.539Z,3.70
2019-06-07T23:45:24.356Z,9.53
2019-06-07T23:47:53.816Z,2.97
2019-06-07T23:50:23.400Z,4.97
2019-06-07T23:53:01.265Z,4.20
2019-06-07T23:55:33.609Z,3.47
2019-06-07T23:58:09.020Z,3.03
